Terminal Aerodrome Forecast
Issued by NWS

Home | Current Version | Previous Version | Text Only | Print | Product List | Glossary On
Versions: 1 2 3 4 5 6 7 8 9 10 11 12 13 14 15 16 17 18 19
000
FTUS43 KDDC 250828 AAB
TAFHYS
TAF AMD
KHYS 250828Z 2508/2606 02010KT P6SM -TSRA BKN040CB
      TEMPO 2508/2512 1SM TSRA BR BKN010CB
     FM251500 03007KT P6SM OVC035
     FM260300 06005KT P6SM OVC015=

USA.gov is the U.S. government's official web portal to all federal, state and local government web resources and services.